| time (UTC) | temp C | wind direction | speed KPH | gust KPH | rain 1hr cm | rain 24hr cm | rain mn cm | humidity % | barometer mb |
| 20260510094510 | 18 | 250 | 1.6 | 4.8 | 0.00 | 0.76 | 0.13 | 99 | 1016.2 |
| 20260510093007 | 18 | 250 | 1.6 | 4.8 | 0.00 | 0.76 | 0.13 | 99 | 1016.4 |
| 20260510091509 | 18 | 250 | 1.6 | 3.2 | 0.00 | 0.76 | 0.13 | 99 | 1016.3 |
| 20260510090005 | 18 | 250 | 0.0 | 1.6 | 0.00 | 0.76 | 0.13 | 99 | 1016.2 |
| 20260510084504 | 18 | 250 | 0.0 | 1.6 | 0.00 | 0.76 | 0.13 | 99 | 1016.0 |
| 20260510083003 | 18 | 250 | 0.0 | 3.2 | 0.00 | 0.76 | 0.13 | 99 | 1016.0 |
| 20260510081507 | 18 | 250 | 0.0 | 6.4 | 0.00 | 0.76 | 0.13 | 99 | 1015.9 |
| 20260510080001 | 18 | 255 | 0.0 | 4.8 | 0.00 | 0.76 | 0.13 | 99 | 1015.4 |
| 20260510074601 | 18 | 271 | 0.0 | 0.0 | 0.03 | 0.76 | 0.13 | 99 | 1015.2 |
| 20260510073114 | 18 | 271 | 1.6 | 3.2 | 0.03 | 0.76 | 0.13 | 99 | 1015.6 |
| 20260510071606 | 18 | 271 | 0.0 | 3.2 | 0.03 | 0.76 | 0.13 | 99 | 1015.6 |
| 20260510070055 | 18 | 271 | 0.0 | 1.6 | 0.05 | 0.76 | 0.13 | 99 | 1015.4 |
| 20260510064600 | 18 | 271 | 0.0 | 0.0 | 0.03 | 0.71 | 0.10 | 99 | 1015.3 |
| 20260510063052 | 19 | 271 | 0.0 | 1.6 | 0.05 | 0.71 | 0.10 | 99 | 1015.3 |
| 20260510061549 | 19 | 271 | 3.2 | 4.8 | 0.05 | 0.71 | 0.10 | 99 | 1015.7 |
| 20260510060044 | 18 | 271 | 0.0 | 0.0 | 0.05 | 0.71 | 0.08 | 99 | 1015.7 |
| 20260510054540 | 19 | 271 | 0.0 | 0.0 | 0.08 | 0.71 | 0.08 | 99 | 1015.8 |
| 20260510053040 | 19 | 271 | 0.0 | 0.0 | 0.05 | 0.69 | 0.05 | 99 | 1016.0 |
| 20260510051543 | 19 | 271 | 0.0 | 1.6 | 0.05 | 0.69 | 0.05 | 99 | 1016.0 |
| 20260510050041 | 19 | 271 | 0.0 | 3.2 | 0.03 | 0.66 | 0.03 | 99 | 1016.2 |
| 20260510044545 | 19 | 271 | 1.6 | 4.8 | 0.00 | 0.64 | 0.00 | 99 | 1016.4 |
| 20260510043036 | 19 | 271 | 1.6 | 3.2 | 0.00 | 0.64 | 0.00 | 99 | 1016.2 |
| 20260510041534 | 19 | 271 | 0.0 | 3.2 | 0.00 | 0.64 | 0.00 | 99 | 1016.0 |
| 20260510040032 | 19 | 271 | 0.0 | 3.2 | 0.00 | 0.64 | 0.64 | 99 | 1016.0 |
| 20260510034535 | 19 | 271 | 0.0 | 4.8 | 0.00 | 0.64 | 0.64 | 99 | 1015.8 |
| 20260510033031 | 19 | 257 | 3.2 | 8.0 | 0.00 | 0.64 | 0.64 | 99 | 1015.8 |
| 20260510031533 | 19 | 232 | 3.2 | 6.4 | 0.00 | 0.64 | 0.64 | 99 | 1015.6 |
| 20260510030030 | 19 | 239 | 0.0 | 4.8 | 0.00 | 0.71 | 0.64 | 99 | 1015.6 |
| 20260510024530 | 19 | 239 | 3.2 | 8.0 | 0.00 | 0.71 | 0.64 | 98 | 1015.4 |
| 20260510023031 | 19 | 230 | 0.0 | 6.4 | 0.00 | 0.71 | 0.64 | 99 | 1015.2 |
| 20260510021535 | 19 | 277 | 3.2 | 11.3 | 0.03 | 0.71 | 0.64 | 98 | 1015.3 |
| 20260510020028 | 19 | 262 | 0.0 | 3.2 | 0.03 | 0.79 | 0.64 | 98 | 1014.9 |
| 20260510014527 | 19 | 260 | 4.8 | 11.3 | 0.03 | 0.79 | 0.64 | 98 | 1015.3 |
| 20260510013026 | 19 | 243 | 4.8 | 8.0 | 0.03 | 0.79 | 0.64 | 98 | 1015.1 |
| 20260510011527 | 19 | 224 | 1.6 | 9.7 | 0.00 | 0.76 | 0.61 | 98 | 1014.9 |
| 20260510010025 | 19 | 257 | 1.6 | 8.0 | 0.00 | 0.76 | 0.61 | 99 | 1015.1 |
| 20260510004525 | 20 | 242 | 1.6 | 14.5 | 0.00 | 0.76 | 0.61 | 99 | 1015.0 |
| 20260510003028 | 20 | 199 | 8.0 | 17.7 | 0.00 | 0.76 | 0.61 | 99 | 1014.7 |
| 20260510001524 | 20 | 219 | 6.4 | 19.3 | 0.00 | 0.76 | 0.61 | 98 | 1014.7 |
| 20260510000024 | 20 | 214 | 8.0 | 16.1 | 0.00 | 0.76 | 0.61 | 98 | 1014.6 |
| 20260509234529 | 20 | 196 | 4.8 | 12.9 | 0.03 | 0.76 | 0.61 | 98 | 1014.2 |
| 20260509233022 | 20 | 185 | 9.7 | 14.5 | 0.08 | 0.76 | 0.61 | 98 | 1014.4 |
| 20260509231521 | 20 | 172 | 1.6 | 8.0 | 0.08 | 0.76 | 0.61 | 98 | 1013.9 |
| 20260509230021 | 20 | 223 | 1.6 | 6.4 | 0.10 | 0.76 | 0.61 | 98 | 1013.9 |
| 20260509224520 | 20 | 233 | 0.0 | 0.0 | 0.08 | 0.71 | 0.58 | 98 | 1014.0 |
| 20260509223025 | 21 | 235 | 0.0 | 0.0 | 0.03 | 0.69 | 0.53 | 98 | 1014.0 |
| 20260509221521 | 21 | 235 | 0.0 | 4.8 | 0.03 | 0.69 | 0.53 | 98 | 1014.0 |
| 20260509220018 | 20 | 219 | 0.0 | 6.4 | 0.00 | 0.66 | 0.51 | 98 | 1013.6 |
| 20260509214517 | 21 | 300 | 1.6 | 8.0 | 0.00 | 0.66 | 0.51 | 98 | 1014.0 |
| 20260509213018 | 20 | 292 | 0.0 | 1.6 | 0.00 | 0.66 | 0.51 | 98 | 1014.1 |
| 20260509211516 | 20 | 292 | 3.2 | 6.4 | 0.00 | 0.66 | 0.51 | 98 | 1014.3 |
| 20260509210024 | 20 | 292 | 0.0 | 8.0 | 0.00 | 0.66 | 0.51 | 98 | 1014.0 |
| 20260509204516 | 20 | 292 | 6.4 | 11.3 | 0.00 | 0.66 | 0.51 | 98 | 1014.4 |
| 20260509203018 | 20 | 286 | 11.3 | 17.7 | 0.00 | 0.66 | 0.51 | 98 | 1014.5 |
| 20260509201515 | 21 | 232 | 4.8 | 11.3 | 0.03 | 0.66 | 0.51 | 98 | 1014.4 |
| 20260509200114 | 20 | 224 | 8.0 | 14.5 | 0.05 | 0.66 | 0.51 | 98 | 1014.3 |
| 20260509194514 | 20 | 238 | 6.4 | 11.3 | 0.08 | 0.66 | 0.51 | 98 | 1014.0 |
| 20260509193015 | 20 | 218 | 0.0 | 9.7 | 0.10 | 0.66 | 0.51 | 98 | 1013.8 |
| 20260509191514 | 20 | 200 | 1.6 | 6.4 | 0.13 | 0.64 | 0.48 | 98 | 1014.0 |
| 20260509190014 | 20 | 239 | 1.6 | 11.3 | 0.28 | 0.61 | 0.46 | 98 | 1014.3 |
| 20260509184520 | 20 | 265 | 1.6 | 14.5 | 0.30 | 0.58 | 0.43 | 98 | 1014.4 |
| 20260509183014 | 20 | 284 | 8.0 | 16.1 | 0.36 | 0.56 | 0.41 | 97 | 1014.8 |
| 20260509181510 | 20 | 284 | 11.3 | 17.7 | 0.33 | 0.51 | 0.36 | 97 | 1015.1 |
| 20260509180009 | 21 | 277 | 16.1 | 24.1 | 0.18 | 0.33 | 0.18 | 96 | 1015.5 |
| 20260509174509 | 21 | 270 | 12.9 | 20.9 | 0.10 | 0.25 | 0.10 | 95 | 1015.5 |
| 20260509173008 | 22 | 270 | 14.5 | 20.9 | 0.05 | 0.20 | 0.05 | 94 | 1015.3 |
| 20260509171520 | 22 | 271 | 14.5 | 20.9 | 0.03 | 0.18 | 0.03 | 92 | 1015.2 |
| 20260509170023 | 23 | 275 | 9.7 | 16.1 | 0.00 | 0.15 | 0.00 | 92 | 1015.3 |
| 20260509164503 | 23 | 269 | 9.7 | 14.5 | 0.00 | 0.15 | 0.00 | 92 | 1015.1 |
| 20260509163002 | 23 | 265 | 4.8 | 16.1 | 0.00 | 0.15 | 0.00 | 92 | 1015.3 |
| 20260509161602 | 23 | 291 | 9.7 | 14.5 | 0.00 | 0.15 | 0.00 | 92 | 1015.4 |
| 20260509160059 | 23 | 267 | 8.0 | 16.1 | 0.00 | 0.15 | 0.00 | 92 | 1015.2 |
| 20260509154559 | 23 | 284 | 9.7 | 14.5 | 0.00 | 0.15 | 0.00 | 92 | 1015.2 |
| 20260509153056 | 23 | 281 | 4.8 | 16.1 | 0.00 | 0.15 | 0.00 | 92 | 1015.3 |
| 20260509151550 | 23 | 248 | 9.7 | 14.5 | 0.00 | 0.15 | 0.00 | 92 | 1015.3 |
| 20260509150050 | 22 | 280 | 6.4 | 16.1 | 0.00 | 0.15 | 0.00 | 94 | 1015.4 |
| 20260509144541 | 22 | 229 | 4.8 | 14.5 | 0.00 | 0.15 | 0.00 | 95 | 1015.6 |
| 20260509143037 | 22 | 239 | 4.8 | 12.9 | 0.00 | 0.15 | 0.00 | 96 | 1015.6 |
| 20260509141534 | 21 | 286 | 4.8 | 11.3 | 0.00 | 0.15 | 0.00 | 97 | 1015.5 |
| 20260509140028 | 21 | 252 | 3.2 | 14.5 | 0.00 | 0.15 | 0.00 | 98 | 1015.6 |
| 20260509134528 | 21 | 225 | 1.6 | 8.0 | 0.00 | 0.15 | 0.00 | 99 | 1015.7 |
| 20260509133026 | 21 | 177 | 0.0 | 0.0 | 0.00 | 0.15 | 0.00 | 99 | 1015.4 |
| 20260509131531 | 20 | 167 | 0.0 | 0.0 | 0.00 | 0.15 | 0.00 | 99 | 1015.4 |
| 20260509130024 | 20 | 140 | 0.0 | 3.2 | 0.00 | 0.15 | 0.00 | 99 | 1015.4 |
| 20260509124522 | 20 | 137 | 0.0 | 1.6 | 0.00 | 0.15 | 0.00 | 99 | 1015.1 |
| 20260509123017 | 19 | 133 | 0.0 | 1.6 | 0.00 | 0.15 | 0.00 | 99 | 1015.1 |
| 20260509121524 | 19 | 132 | 0.0 | 3.2 | 0.00 | 0.15 | 0.00 | 99 | 1015.0 |
| 20260509120013 | 18 | 130 | 0.0 | 0.0 | 0.00 | 0.15 | 0.00 | 99 | 1014.6 |
| 20260509114522 | 18 | 130 | 0.0 | 0.0 | 0.00 | 0.15 | 0.00 | 99 | 1014.6 |
| 20260509113013 | 18 | 130 | 0.0 | 0.0 | 0.00 | 0.15 | 0.00 | 99 | 1014.6 |
| 20260509111512 | 18 | 130 | 0.0 | 0.0 | 0.00 | 0.15 | 0.00 | 99 | 1014.5 |
| 20260509110012 | 18 | 130 | 0.0 | 0.0 | 0.00 | 0.15 | 0.00 | 99 | 1014.2 |
| 20260509104511 | 18 | 130 | 3.2 | 4.8 | 0.00 | 0.15 | 0.00 | 99 | 1013.8 |
| 20260509103010 | 18 | 130 | 0.0 | 0.0 | 0.00 | 0.15 | 0.00 | 98 | 1013.9 |
| 20260509101509 | 18 | 130 | 0.0 | 6.4 | 0.00 | 0.15 | 0.00 | 99 | 1013.7 |
| 20260509100019 | 18 | 134 | 1.6 | 3.2 | 0.00 | 0.15 | 0.00 | 99 | 1013.5 |